Carter Lake, IA (51510)

16:06 CST le 23 novembre 2014 (GMT -0600)
CarterLake.org | Change Station
CLOSE
Current Station
Stations météorologiques personnelles
Location: Carter Lake, IA
Altitude: 980 ft
Stations météo à proximité

Alt. 980 ft 41.29 °N, 95.92 °W | Updated 3 seconds ago

Overcast
Couvert
43.3 ° F
Paraît 43 ° F
N
0.0
Vent Variable Vent de Nord
Gusts 0.0 mph

Aujourd'hui
Haut(e) -- | Bas -- ° F
--% Risque de précip.
Hier
Haut(e) -- | Bas -- ° F
Precip. -- pouce
7:21 AM 4:58 PM
Nouvelle lune, 2% visible
Pression 29.51 pouce
Visibilité 10.0 Miles terrestres
Nuages Peu 4400 ft
Couvert 6000 ft
Refroidissement éolien 43 ° F
Point de rosée 34 ° F
Humidité 71%
Précipitations 0.00 pouce
Profondeur de la couche neigeuse Non disponible.
UV 0 sur 12
Pollen .10 sur 12
Qualité de l'air Non disponible.
Flu Activity Non disponible.
METAR KOMA 232152Z 34018G25KT 10SM FEW044 OVC060 06/02 A2951 RMK AO2 PK WND 36033/2116 RAE05B38E47 SLP993 P0000 T00610017

More Conditions Fewer Conditions

Pression 29.51 pouce
Visibilité 10.0 Miles terrestres
Nuages Peu 4400 ft
Couvert 6000 ft
Refroidissement éolien 43 ° F
Point de rosée 34 ° F
Humidité 71%
Précipitations 0.00 pouce
Profondeur de la couche neigeuse Non disponible.
UV 0 sur 12
Pollen .10 sur 12
Qualité de l'air Non disponible.
Flu Activity Non disponible.
METAR KOMA 232152Z 34018G25KT 10SM FEW044 OVC060 06/02 A2951 RMK AO2 PK WND 36033/2116 RAE05B38E47 SLP993 P0000 T00610017

More Conditions Fewer Conditions

10-Day Weather Forecast

Almanac

Astronomie

Nov. 23, 2014 Lever Coucher
Temps réel
Crépuscule civil
Crépuscule nautique
Crépuscule astronomique
Lune
Durée de lumière visible
Longueur du jour
Tomorrow will be .
, % of the Moon is Illuminated

Extrêmes aujourd'hui

State Highs State Lows

Community

WunderPhotos

Upload Photos

1,773,183 Photos téléchargées !

WunderBlogs® & News

Nearby

Qualité de l'air

  Qualité de l'air Indice de la qualité de l'air Polluant
Not available.

Épaisseur de neige

Station Depth Altitude

Activité sismique

Ville Distance Mag. Time & Date
Minimum magnitude displayed is 2.5.

Températures des eaux côtières

Lieu Température

Stations météo à proximité